createdAt,value
2022-08-18T00:02:07.625Z,100705.88
2022-08-18T00:04:45.251Z,100693.06
2022-08-18T00:07:26.539Z,100702.72
2022-08-18T00:09:53.655Z,100692.66
2022-08-18T00:12:24.498Z,100686.31
2022-08-18T00:14:53.016Z,100680.00
2022-08-18T00:17:21.628Z,100687.19
2022-08-18T00:19:48.838Z,100686.31
2022-08-18T00:22:21.007Z,100693.06
2022-08-18T00:24:52.591Z,100677.47
2022-08-18T00:27:30.459Z,100676.22
2022-08-18T00:30:01.354Z,100661.50
2022-08-18T00:32:43.048Z,100672.84
2022-08-18T00:35:14.021Z,100669.72
2022-08-18T00:37:42.423Z,100658.13
2022-08-18T00:40:14.662Z,100655.81
2022-08-18T00:42:52.838Z,100653.28
2022-08-18T00:45:26.292Z,100649.09
2022-08-18T00:47:54.008Z,100647.81
2022-08-18T00:50:34.248Z,100650.97
2022-08-18T00:53:20.504Z,100654.13
2022-08-18T00:55:53.782Z,100640.44
2022-08-18T00:58:30.987Z,100634.13
2022-08-18T01:01:01.146Z,100640.88
2022-08-18T01:03:29.116Z,100630.97
2022-08-18T01:06:28.395Z,100620.25
2022-08-18T01:08:56.194Z,100624.44
2022-08-18T01:11:23.472Z,100621.91
2022-08-18T01:13:51.095Z,100620.88
2022-08-18T01:16:37.632Z,100628.66
2022-08-18T01:19:23.408Z,100624.47
2022-08-18T01:22:04.587Z,100630.34
2022-08-18T01:24:54.493Z,100636.66
2022-08-18T01:27:21.919Z,100644.00
2022-08-18T01:29:50.477Z,100645.03
2022-08-18T01:32:23.722Z,100643.38
2022-08-18T01:34:52.708Z,100647.56
2022-08-18T01:37:23.805Z,100651.81
2022-08-18T01:41:27.544Z,100654.31
2022-08-18T01:42:39.093Z,100655.16
2022-08-18T01:45:08.697Z,100651.56
2022-08-18T01:47:47.480Z,100652.63
2022-08-18T01:50:23.850Z,100647.19
2022-08-18T01:52:53.594Z,100645.47
2022-08-18T01:55:21.516Z,100637.91
2022-08-18T01:57:48.827Z,100629.94
2022-08-18T02:00:19.074Z,100633.28
2022-08-18T02:02:47.259Z,100633.72
2022-08-18T02:05:43.075Z,100632.66
2022-08-18T02:08:12.564Z,100626.34
2022-08-18T02:10:40.383Z,100623.84
2022-08-18T02:13:07.392Z,100616.88
2022-08-18T02:15:34.985Z,100616.47
2022-08-18T02:18:02.344Z,100621.50
2022-08-18T02:20:29.361Z,100626.97
2022-08-18T02:22:58.708Z,100623.63
2022-08-18T02:25:25.602Z,100615.63
2022-08-18T02:27:52.603Z,100620.25
2022-08-18T02:30:20.853Z,100613.91
2022-08-18T02:32:47.789Z,100610.97
2022-08-18T02:35:14.844Z,100610.16
2022-08-18T02:37:43.554Z,100609.72
2022-08-18T02:40:14.912Z,100610.97
2022-08-18T02:42:43.830Z,100601.75
2022-08-18T02:45:12.952Z,100610.16
2022-08-18T02:47:40.885Z,100604.47
2022-08-18T02:50:10.963Z,100595.44
2022-08-18T02:52:38.418Z,100591.44
2022-08-18T02:55:08.765Z,100594.81
2022-08-18T02:57:35.801Z,100585.34
2022-08-18T03:00:03.017Z,100579.88
2022-08-18T03:02:32.101Z,100577.34
2022-08-18T03:04:58.943Z,100575.47
2022-08-18T03:07:25.750Z,100562.63
2022-08-18T03:09:52.564Z,100564.31
2022-08-18T03:12:19.438Z,100560.94
2022-08-18T03:14:46.926Z,100562.00
2022-08-18T03:17:15.149Z,100564.72
2022-08-18T03:19:47.909Z,100565.13
2022-08-18T03:22:27.472Z,100571.03
2022-08-18T03:24:57.200Z,100566.63
2022-08-18T03:27:24.643Z,100550.00
2022-08-18T03:29:51.571Z,100548.94
2022-08-18T03:32:18.969Z,100551.69
2022-08-18T03:34:46.007Z,100538.44
2022-08-18T03:37:16.385Z,100543.28
2022-08-18T03:39:43.402Z,100533.59
2022-08-18T03:42:10.542Z,100534.88
2022-08-18T03:44:37.786Z,100524.34
2022-08-18T03:47:10.129Z,100527.50
2022-08-18T03:49:37.954Z,100520.38
2022-08-18T03:52:09.926Z,100512.56
2022-08-18T03:54:39.083Z,100520.97
2022-08-18T03:57:09.549Z,100526.03
2022-08-18T03:59:36.913Z,100523.09
2022-08-18T04:02:05.756Z,100534.03
2022-08-18T04:04:33.020Z,100541.81
2022-08-18T04:07:10.018Z,100534.44
2022-08-18T04:09:39.125Z,100535.06
2022-08-18T04:12:16.673Z,100531.72
2022-08-18T04:14:49.209Z,100534.03
2022-08-18T04:17:27.472Z,100541.59
2022-08-18T04:19:56.371Z,100534.66
2022-08-18T04:22:25.192Z,100536.56
2022-08-18T04:24:53.548Z,100542.44
2022-08-18T04:27:22.700Z,100539.06
2022-08-18T04:29:50.264Z,100545.38
2022-08-18T04:32:17.418Z,100550.66
2022-08-18T04:34:44.729Z,100542.00
2022-08-18T04:37:14.061Z,100542.00
2022-08-18T04:39:41.310Z,100544.75
2022-08-18T04:42:08.701Z,100532.78
2022-08-18T04:44:38.058Z,100541.81
2022-08-18T04:47:07.736Z,100543.50
2022-08-18T04:49:35.398Z,100544.94
2022-08-18T04:52:40.849Z,100541.38
2022-08-18T04:55:08.880Z,100547.47
2022-08-18T04:57:36.029Z,100541.59
2022-08-18T05:00:07.136Z,100539.47
2022-08-18T05:02:34.090Z,100544.13
2022-08-18T05:05:03.370Z,100543.72
2022-08-18T05:07:30.603Z,100539.91
2022-08-18T05:09:57.685Z,100531.06
2022-08-18T05:12:26.323Z,100542.84
2022-08-18T05:14:57.123Z,100531.50
2022-08-18T05:17:30.543Z,100531.69
2022-08-18T05:20:00.379Z,100535.06
2022-08-18T05:22:31.143Z,100533.19
2022-08-18T05:24:58.589Z,100535.69
2022-08-18T05:27:25.434Z,100527.94
2022-08-18T05:29:52.466Z,100526.03
2022-08-18T05:32:38.334Z,100526.66
2022-08-18T05:35:12.393Z,100519.72
2022-08-18T05:37:59.933Z,100518.91
2022-08-18T05:40:27.116Z,100516.56
2022-08-18T05:42:57.575Z,100518.25
2022-08-18T05:45:25.031Z,100522.44
2022-08-18T05:47:52.106Z,100522.69
2022-08-18T05:50:21.191Z,100532.53
2022-08-18T05:53:00.158Z,100520.56
2022-08-18T05:55:57.463Z,100528.16
2022-08-18T05:58:34.469Z,100531.28
2022-08-18T06:01:12.094Z,100527.69
2022-08-18T06:04:06.742Z,100524.34
2022-08-18T06:06:36.685Z,100508.38
2022-08-18T06:09:26.086Z,100524.13
2022-08-18T06:12:09.230Z,100513.84
2022-08-18T06:14:39.249Z,100522.66
2022-08-18T06:17:46.930Z,100519.31
2022-08-18T06:20:31.029Z,100520.09
2022-08-18T06:23:28.191Z,100520.09
2022-08-18T06:26:10.727Z,100518.00
2022-08-18T06:29:25.229Z,100518.00
2022-08-18T06:32:06.085Z,100517.78
2022-08-18T06:35:10.364Z,100522.22
2022-08-18T06:38:36.570Z,100511.50
2022-08-18T06:41:41.888Z,100501.38
2022-08-18T06:44:31.547Z,100506.19
2022-08-18T06:47:11.565Z,100508.31
2022-08-18T06:49:46.798Z,100507.84
2022-08-18T06:52:23.786Z,100509.13
2022-08-18T06:54:54.268Z,100512.50
2022-08-18T06:57:57.987Z,100514.19
2022-08-18T07:00:32.670Z,100511.66
2022-08-18T07:03:13.685Z,100509.34
2022-08-18T07:06:02.565Z,100515.84
2022-08-18T07:08:38.654Z,100514.56
2022-08-18T07:11:29.649Z,100515.41
2022-08-18T07:14:22.586Z,100517.50
2022-08-18T07:16:59.258Z,100512.44
2022-08-18T07:19:31.331Z,100520.00
2022-08-18T07:22:05.818Z,100505.03
2022-08-18T07:24:40.777Z,100505.66
2022-08-18T07:27:17.777Z,100504.59
2022-08-18T07:30:15.691Z,100507.53
2022-08-18T07:32:52.097Z,100508.59
2022-08-18T07:35:25.195Z,100507.72
2022-08-18T07:38:13.841Z,100514.25
2022-08-18T07:40:59.397Z,100507.53
2022-08-18T07:44:17.209Z,100506.88
2022-08-18T07:46:56.361Z,100507.28
2022-08-18T07:49:28.259Z,100499.03
2022-08-18T07:52:04.016Z,100501.34
2022-08-18T07:54:50.460Z,100498.16
2022-08-18T07:57:50.498Z,100489.50
2022-08-18T08:00:47.728Z,100487.75
2022-08-18T08:03:48.239Z,100489.00
2022-08-18T08:06:47.709Z,100496.03
2022-08-18T08:09:39.738Z,100492.19
2022-08-18T08:12:32.797Z,100490.84
2022-08-18T08:15:42.898Z,100496.31
2022-08-18T08:18:44.455Z,100496.13
2022-08-18T08:21:18.593Z,100500.88
2022-08-18T08:23:56.306Z,100493.28
2022-08-18T08:26:32.332Z,100488.78
2022-08-18T08:29:38.599Z,100491.94
2022-08-18T08:32:34.512Z,100480.31
2022-08-18T08:35:49.879Z,100475.81
2022-08-18T08:38:43.141Z,100467.47
2022-08-18T08:41:33.497Z,100465.84
2022-08-18T08:44:16.882Z,100456.25
2022-08-18T08:46:55.649Z,100452.41
2022-08-18T08:50:02.551Z,100453.44
2022-08-18T08:52:44.949Z,100456.47
2022-08-18T08:55:25.805Z,100454.41
2022-08-18T08:58:09.811Z,100450.19
2022-08-18T09:00:40.983Z,100447.84
2022-08-18T09:03:30.077Z,100443.41
2022-08-18T09:06:00.594Z,100442.78
2022-08-18T09:08:49.185Z,100447.31
2022-08-18T09:12:07.534Z,100438.28
2022-08-18T09:15:26.518Z,100428.50
2022-08-18T09:18:30.129Z,100442.59
2022-08-18T09:21:22.199Z,100446.31
2022-08-18T09:23:55.011Z,100438.72
2022-08-18T09:26:40.064Z,100437.38
2022-08-18T09:29:23.735Z,100433.03
2022-08-18T09:32:18.703Z,100427.50
2022-08-18T09:35:45.924Z,100422.38
2022-08-18T09:38:45.635Z,100426.78
2022-08-18T09:41:34.232Z,100425.41
2022-08-18T09:44:21.333Z,100429.41
2022-08-18T09:46:56.180Z,100435.38
2022-08-18T09:49:27.329Z,100433.59
2022-08-18T09:52:24.468Z,100429.59
2022-08-18T09:54:59.408Z,100431.28
2022-08-18T09:57:31.258Z,100427.44
2022-08-18T10:00:12.629Z,100429.28
2022-08-18T10:02:40.456Z,100426.63
2022-08-18T10:05:17.201Z,100422.47
2022-08-18T10:08:25.649Z,100421.69
2022-08-18T10:11:16.663Z,100416.38
2022-08-18T10:14:31.323Z,100400.41
2022-08-18T10:17:35.680Z,100400.06
2022-08-18T10:20:34.437Z,100394.00
2022-08-18T10:23:02.008Z,100390.00
2022-08-18T10:25:47.526Z,100385.16
2022-08-18T10:28:51.986Z,100380.25
2022-08-18T10:31:19.090Z,100374.13
2022-08-18T10:34:19.123Z,100373.44
2022-08-18T10:37:02.052Z,100371.97
2022-08-18T10:39:41.216Z,100359.41
2022-08-18T10:42:33.981Z,100364.38
2022-08-18T10:45:32.315Z,100357.34
2022-08-18T10:48:30.572Z,100355.19
2022-08-18T10:51:12.330Z,100360.13
2022-08-18T10:53:51.556Z,100368.84
2022-08-18T10:56:48.589Z,100380.91
2022-08-18T11:06:17.829Z,100391.16
2022-08-18T11:08:55.181Z,100385.56
2022-08-18T11:15:22.604Z,100368.91
2022-08-18T11:18:10.766Z,100375.69
2022-08-18T11:20:40.310Z,100361.16
2022-08-18T11:23:17.424Z,100355.09
2022-08-18T11:25:45.161Z,100355.97
2022-08-18T11:31:06.557Z,100339.78
2022-08-18T11:33:33.605Z,100345.31
2022-08-18T11:36:05.172Z,100351.22
2022-08-18T11:38:34.674Z,100335.53
2022-08-18T11:41:23.484Z,100337.00
2022-08-18T11:43:59.901Z,100338.13
2022-08-18T11:46:38.969Z,100327.06
2022-08-18T11:49:30.210Z,100335.53
2022-08-18T11:52:29.618Z,100330.00
2022-08-18T11:55:14.427Z,100331.81
2022-08-18T11:57:59.203Z,100331.19
2022-08-18T12:00:47.686Z,100321.69
2022-08-18T12:03:31.119Z,100322.31
2022-08-18T12:06:19.305Z,100313.72
2022-08-18T12:09:05.175Z,100317.63
2022-08-18T12:11:37.076Z,100311.22
2022-08-18T12:14:30.774Z,100308.44
2022-08-18T12:19:47.601Z,100314.66
2022-08-18T12:22:22.891Z,100306.78
2022-08-18T12:24:51.099Z,100301.69
2022-08-18T12:27:22.465Z,100295.75
2022-08-18T12:29:52.987Z,100296.09
2022-08-18T12:35:11.840Z,100297.47
2022-08-18T12:38:11.214Z,100297.75
2022-08-18T12:43:20.070Z,100294.91
2022-08-18T12:45:47.875Z,100301.91
2022-08-18T12:48:15.168Z,100292.81
2022-08-18T12:50:54.628Z,100302.34
2022-08-18T12:53:30.048Z,100292.16
2022-08-18T12:56:17.623Z,100303.50
2022-08-18T12:58:47.563Z,100296.59
2022-08-18T13:01:17.716Z,100296.94
2022-08-18T13:03:52.706Z,100296.66
2022-08-18T13:06:40.753Z,100302.19
2022-08-18T13:09:16.584Z,100297.19
2022-08-18T13:11:55.968Z,100298.28
2022-08-18T13:14:27.234Z,100301.34
2022-08-18T13:16:55.252Z,100301.38
2022-08-18T13:19:22.346Z,100303.59
2022-08-18T13:21:49.713Z,100305.53
2022-08-18T13:24:21.242Z,100292.25
2022-08-18T13:26:50.256Z,100290.06
2022-08-18T13:29:19.638Z,100286.44
2022-08-18T13:31:50.426Z,100285.09
2022-08-18T13:34:22.497Z,100287.56
2022-08-18T13:36:51.173Z,100277.91
2022-08-18T13:39:24.237Z,100278.19
2022-08-18T13:41:54.153Z,100260.19
2022-08-18T13:44:22.714Z,100259.09
2022-08-18T13:46:56.041Z,100261.56
2022-08-18T13:49:30.315Z,100259.34
2022-08-18T13:52:00.976Z,100258.53
2022-08-18T13:54:34.064Z,100255.47
2022-08-18T13:57:05.076Z,100248.81
2022-08-18T13:59:34.255Z,100243.84
2022-08-18T14:02:08.662Z,100243.28
2022-08-18T14:04:38.127Z,100248.25
2022-08-18T14:07:10.954Z,100246.56
2022-08-18T14:09:39.365Z,100234.63
2022-08-18T14:12:28.343Z,100237.13
2022-08-18T14:14:59.693Z,100241.50
2022-08-18T14:17:27.251Z,100241.47
2022-08-18T14:20:15.546Z,100234.78
2022-08-18T14:23:11.055Z,100234.66
2022-08-18T14:25:57.234Z,100233.44
2022-08-18T14:28:28.359Z,100221.00
2022-08-18T14:30:57.789Z,100217.75
2022-08-18T14:33:49.675Z,100219.69
2022-08-18T14:36:17.414Z,100223.03
2022-08-18T14:38:45.524Z,100215.63
2022-08-18T14:41:14.780Z,100210.66
2022-08-18T14:43:55.647Z,100212.66
2022-08-18T14:46:32.814Z,100208.78
2022-08-18T14:49:04.139Z,100208.78
2022-08-18T14:51:33.647Z,100206.06
2022-08-18T14:54:02.145Z,100201.06
2022-08-18T14:56:29.772Z,100201.88
2022-08-18T14:59:00.160Z,100206.06
2022-08-18T15:01:27.546Z,100201.59
2022-08-18T15:03:55.023Z,100211.25
2022-08-18T15:06:22.961Z,100194.00
2022-08-18T15:08:54.414Z,100198.69
2022-08-18T15:11:24.577Z,100193.69
2022-08-18T15:13:55.091Z,100191.97
2022-08-18T15:16:26.956Z,100181.44
2022-08-18T15:18:59.315Z,100181.97
2022-08-18T15:21:47.142Z,100176.19
2022-08-18T15:24:39.660Z,100187.25
2022-08-18T15:27:13.266Z,100186.97
2022-08-18T15:29:46.484Z,100183.13
2022-08-18T15:32:17.572Z,100179.53
2022-08-18T15:34:47.278Z,100175.13
2022-08-18T15:37:22.141Z,100177.59
2022-08-18T15:40:03.050Z,100177.31
2022-08-18T15:42:30.056Z,100176.47
2022-08-18T15:45:11.590Z,100180.38
2022-08-18T15:47:41.584Z,100175.91
2022-08-18T15:50:21.955Z,100182.31
2022-08-18T15:53:01.104Z,100183.09
2022-08-18T15:55:35.715Z,100184.41
2022-08-18T15:58:03.449Z,100192.38
2022-08-18T16:00:42.672Z,100181.19
2022-08-18T16:03:14.579Z,100188.94
2022-08-18T16:05:52.776Z,100185.50
2022-08-18T16:08:23.714Z,100193.78
2022-08-18T16:10:52.467Z,100195.00
2022-08-18T16:13:20.122Z,100199.19
2022-08-18T16:15:50.418Z,100193.38
2022-08-18T16:18:21.245Z,100192.94
2022-08-18T16:20:50.683Z,100190.75
2022-08-18T16:23:19.772Z,100187.41
2022-08-18T16:25:46.711Z,100182.09
2022-08-18T16:28:13.664Z,100182.94
2022-08-18T16:30:41.499Z,100181.53
2022-08-18T16:33:08.835Z,100181.81
2022-08-18T16:35:37.553Z,100185.03
2022-08-18T16:38:08.789Z,100176.81
2022-08-18T16:40:37.180Z,100188.38
2022-08-18T16:43:06.076Z,100180.53
2022-08-18T16:45:36.232Z,100185.03
2022-08-18T16:48:04.156Z,100184.66
2022-08-18T16:50:31.148Z,100185.13
2022-08-18T16:52:58.556Z,100177.94
2022-08-18T16:55:25.583Z,100174.38
2022-08-18T16:58:15.275Z,100166.38
2022-08-18T17:01:01.809Z,100164.72
2022-08-18T17:03:47.401Z,100162.28
2022-08-18T17:06:18.633Z,100168.03
2022-08-18T17:08:46.463Z,100158.66
2022-08-18T17:11:19.157Z,100151.16
2022-08-18T17:13:48.903Z,100137.13
2022-08-18T17:16:17.694Z,100142.88
2022-08-18T17:18:45.305Z,100155.88
2022-08-18T17:21:17.245Z,100150.03
2022-08-18T17:23:46.024Z,100149.34
2022-08-18T17:26:27.164Z,100156.97
2022-08-18T17:29:35.962Z,100149.97
2022-08-18T17:32:10.895Z,100146.31
2022-08-18T17:34:43.176Z,100131.84
2022-08-18T17:37:14.821Z,100138.47
2022-08-18T17:40:12.736Z,100133.44
2022-08-18T17:42:40.603Z,100146.66
2022-08-18T17:45:11.749Z,100143.97
2022-08-18T17:48:00.187Z,100139.47
2022-08-18T17:51:05.148Z,100135.38
2022-08-18T17:53:36.385Z,100131.84
2022-08-18T17:56:22.255Z,100133.44
2022-08-18T17:58:56.731Z,100135.63
2022-08-18T18:01:26.241Z,100133.59
2022-08-18T18:03:54.062Z,100124.03
2022-08-18T18:06:31.768Z,100121.84
2022-08-18T18:09:09.187Z,100122.56
2022-08-18T18:11:47.325Z,100116.13
2022-08-18T18:14:44.073Z,100107.78
2022-08-18T18:17:32.586Z,100107.13
2022-08-18T18:20:32.956Z,100120.00
2022-08-18T18:23:22.632Z,100119.19
2022-08-18T18:25:50.794Z,100118.88
2022-08-18T18:28:36.167Z,100119.06
2022-08-18T18:31:28.073Z,100113.41
2022-08-18T18:34:23.460Z,100106.09
2022-08-18T18:36:56.269Z,100106.25
2022-08-18T18:39:35.944Z,100102.00
2022-08-18T18:42:26.452Z,100093.34
2022-08-18T18:45:05.814Z,100093.13
2022-08-18T18:48:07.992Z,100100.09
2022-08-18T18:51:10.504Z,100101.03
2022-08-18T18:54:06.370Z,100104.53
2022-08-18T18:56:41.605Z,100101.78
2022-08-18T18:59:21.146Z,100098.44
2022-08-18T19:02:32.932Z,100105.53
2022-08-18T19:05:19.589Z,100107.47
2022-08-18T19:07:58.186Z,100109.78
2022-08-18T19:10:30.631Z,100107.88
2022-08-18T19:13:06.042Z,100107.25
2022-08-18T19:15:38.246Z,100107.78
2022-08-18T19:18:28.045Z,100121.56
2022-08-18T19:22:04.787Z,100121.31
2022-08-18T19:24:26.751Z,100108.81
2022-08-18T19:27:00.585Z,100110.53
2022-08-18T19:29:38.716Z,100110.47
2022-08-18T19:32:16.613Z,100118.03
2022-08-18T19:34:52.877Z,100112.03
2022-08-18T19:37:50.379Z,100104.81
2022-08-18T19:40:28.821Z,100109.22
2022-08-18T19:43:05.788Z,100105.63
2022-08-18T19:46:02.621Z,100106.13
2022-08-18T19:48:53.325Z,100100.56
2022-08-18T19:51:40.144Z,100110.78
2022-08-18T19:54:52.240Z,100118.47
2022-08-18T19:57:19.224Z,100128.13
2022-08-18T20:00:20.616Z,100113.97
2022-08-18T20:03:05.993Z,100127.78
2022-08-18T20:06:20.892Z,100126.16
2022-08-18T20:09:09.884Z,100130.31
2022-08-18T20:11:42.699Z,100120.13
2022-08-18T20:14:18.830Z,100132.47
2022-08-18T20:17:10.587Z,100131.66
2022-08-18T20:19:44.584Z,100121.13
2022-08-18T20:22:34.381Z,100113.63
2022-08-18T20:25:41.833Z,100128.22
2022-08-18T20:28:11.827Z,100131.97
2022-08-18T20:30:38.600Z,100127.31
2022-08-18T20:33:32.320Z,100139.66
2022-08-18T20:36:24.472Z,100137.97
2022-08-18T20:38:55.164Z,100135.78
2022-08-18T20:41:35.621Z,100137.97
2022-08-18T20:44:49.826Z,100137.28
2022-08-18T20:47:16.734Z,100143.13
2022-08-18T20:50:10.766Z,100141.31
2022-08-18T20:52:43.360Z,100135.47
2022-08-18T20:55:19.440Z,100145.63
2022-08-18T20:57:47.003Z,100140.13
2022-08-18T21:00:23.930Z,100141.53
2022-08-18T21:02:59.901Z,100136.81
2022-08-18T21:05:34.098Z,100133.59
2022-08-18T21:08:13.686Z,100141.88
2022-08-18T21:10:58.051Z,100151.94
2022-08-18T21:13:56.891Z,100147.94
2022-08-18T21:16:37.740Z,100147.25
2022-08-18T21:19:23.755Z,100142.44
2022-08-18T21:21:56.885Z,100143.28
2022-08-18T21:24:36.966Z,100142.59
2022-08-18T21:27:12.352Z,100141.91
2022-08-18T21:29:47.512Z,100141.78
2022-08-18T21:32:48.217Z,100141.78
2022-08-18T21:35:34.289Z,100154.94
2022-08-18T21:38:06.379Z,100140.63
2022-08-18T21:40:47.701Z,100153.91
2022-08-18T21:43:49.109Z,100143.53
2022-08-18T21:46:29.679Z,100149.25
2022-08-18T21:49:01.110Z,100150.91
2022-08-18T21:51:33.336Z,100148.56
2022-08-18T21:54:00.923Z,100149.38
2022-08-18T21:56:32.306Z,100150.47
2022-08-18T21:59:19.075Z,100150.13
2022-08-18T22:01:55.466Z,100154.31
2022-08-18T22:04:47.558Z,100151.44
2022-08-18T22:07:34.251Z,100155.13
2022-08-18T22:10:41.761Z,100144.50
2022-08-18T22:13:41.746Z,100135.09
2022-08-18T22:16:32.716Z,100143.09
2022-08-18T22:19:28.860Z,100129.00
2022-08-18T22:22:26.657Z,100134.16
2022-08-18T22:24:59.579Z,100132.97
2022-08-18T22:27:27.621Z,100138.69
2022-08-18T22:30:04.189Z,100140.34
2022-08-18T22:32:40.124Z,100145.16
2022-08-18T22:35:08.885Z,100149.09
2022-08-18T22:37:50.170Z,100145.25
2022-08-18T22:40:21.653Z,100149.22
2022-08-18T22:42:49.259Z,100152.56
2022-08-18T22:45:16.504Z,100142.75
2022-08-18T22:47:44.853Z,100139.13
2022-08-18T22:50:14.082Z,100144.91
2022-08-18T22:52:46.648Z,100140.47
2022-08-18T22:55:21.827Z,100146.47
2022-08-18T22:57:55.871Z,100148.00
2022-08-18T23:00:25.481Z,100143.09
2022-08-18T23:02:54.386Z,100146.94
2022-08-18T23:05:21.901Z,100145.25
2022-08-18T23:07:49.044Z,100144.19
2022-08-18T23:10:16.890Z,100150.28
2022-08-18T23:12:45.157Z,100140.13
2022-08-18T23:15:13.240Z,100137.38
2022-08-18T23:17:42.472Z,100138.31
2022-08-18T23:20:17.891Z,100127.56
2022-08-18T23:22:46.536Z,100131.50
2022-08-18T23:25:13.884Z,100126.84
2022-08-18T23:27:41.416Z,100126.34
2022-08-18T23:30:09.527Z,100134.00
2022-08-18T23:32:36.907Z,100120.66
2022-08-18T23:35:04.869Z,100123.63
2022-08-18T23:37:31.934Z,100123.28
2022-08-18T23:39:59.449Z,100126.75
2022-08-18T23:42:26.788Z,100125.34
2022-08-18T23:44:53.607Z,100118.53
2022-08-18T23:47:21.241Z,100117.34
2022-08-18T23:49:48.853Z,100114.50
2022-08-18T23:52:15.789Z,100117.91
2022-08-18T23:54:42.680Z,100117.47
2022-08-18T23:57:09.476Z,100110.16
2022-08-18T23:59:36.728Z,100115.06
